Página principal
METAR-TAF:

METAR-TAF

Aeroportos :

Zanjan, Irão

latitude: 36-41N, longitude: 048-29E, altura: 1663 m

Observação actual do tempo

O boletim foi feito há 41 minutos, às 12:00 UTC
Vento 4 kt de oes-sudoeste
Temperatura 1°C
Humidade 93%
Pressão 1021 hPa
Visibilidade: 2000 m
Nuvens dispersasa uma altura de 500 ft
Encobertoa uma altura de 3000 ft
neblina

METAR: OITZ 161200Z 25004KT 2000 BR SCT005 OVC030 01/00 Q1021

Hora: 16:11 (12:41 UTC)


TAF: em falta

Observações e previsões do tempo de mais de 4000 aeroportos (mensagens METAR e TAF).

As estações disponíveis são os pontos amarelos e vermelhos sobre o mapa.

Mova o rato sobre o mapa para ver o nome da estação.

Depois clique no ponto para visualizar as observações e previsões meteorológicas.

Para alterar o mapa : clique nos botões verdes com uma cruz preta para aumentar o zoom; no botão verde com uma pitada de zoom; ou nas setas verdes para mapas adjacentes.


METAR-TAF: